Time;durP1;ratioP1;P1;durP2;ratioP2;P2;SDS_P1;SDS_P2;PMS_P1;PMS_P2;Temp;Humidity;BMP_temperature;BMP_pressure;BME280_temperature;BME280_humidity;BME280_pressure;Samples;Min_cycle;Max_cycle;Signal;HPM_P1;HPM_P2
2023/12/08 00:02:15;;;;;;;5.53;5.18;;;;;;;2.32;100.00;99631.16;6080523;23;20033;-71
2023/12/08 00:04:42;;;;;;;4.18;3.88;;;;;;;1.81;100.00;99535.53;6108444;23;20123;-72
2023/12/08 00:07:08;;;;;;;6.97;4.78;;;;;;;1.57;100.00;99504.44;6078175;23;20041;-73
2023/12/08 00:09:34;;;;;;;4.60;4.20;;;;;;;1.86;100.00;99557.72;6113649;23;20029;-72
2023/12/08 00:12:01;;;;;;;4.68;4.32;;;;;;;1.77;100.00;99520.09;6083515;23;20462;-72
2023/12/08 00:14:28;;;;;;;6.75;4.25;;;;;;;2.29;100.00;99595.03;6085396;23;20028;-72
2023/12/08 00:16:54;;;;;;;4.43;4.13;;;;;;;1.77;100.00;99483.06;6080736;23;20472;-72
2023/12/08 00:19:21;;;;;;;11.38;5.78;;;;;;;1.87;100.00;99468.88;6106984;23;20051;-72
2023/12/08 00:21:47;;;;;;;3.92;3.72;;;;;;;2.16;100.00;99496.25;6083375;23;20572;-73
2023/12/08 00:24:14;;;;;;;6.38;5.88;;;;;;;2.32;100.00;99545.72;6103208;23;20746;-73
2023/12/08 00:26:40;;;;;;;4.30;4.05;;;;;;;1.58;100.00;99411.31;6086544;23;20092;-73
2023/12/08 00:29:07;;;;;;;4.45;4.07;;;;;;;0.74;100.00;99234.28;6108521;23;20029;-72
2023/12/08 00:31:33;;;;;;;4.60;4.32;;;;;;;1.82;100.00;99376.81;6081707;23;20653;-73
2023/12/08 00:34:00;;;;;;;5.68;4.95;;;;;;;2.42;100.00;99445.25;6111582;23;20040;-71
2023/12/08 00:36:27;;;;;;;3.80;3.60;;;;;;;2.09;100.00;99395.66;6055137;23;20044;-71
2023/12/08 00:38:54;;;;;;;3.92;3.72;;;;;;;1.90;100.00;99360.09;6109714;23;20018;-72
2023/12/08 00:41:20;;;;;;;7.07;3.50;;;;;;;1.27;100.00;99209.97;6079612;23;20108;-72
2023/12/08 00:43:47;;;;;;;4.60;4.30;;;;;;;1.87;100.00;99295.56;6108789;23;20033;-72
2023/12/08 00:46:16;;;;;;;6.57;6.25;;;;;;;1.95;100.00;99339.25;6082657;23;20095;-71
2023/12/08 00:48:45;;;;;;;4.15;3.90;;;;;;;2.24;100.00;99428.69;6109693;23;20507;-72
2023/12/08 00:51:13;;;;;;;6.68;4.78;;;;;;;2.20;100.00;99403.81;6083332;23;20021;-73
2023/12/08 00:53:42;;;;;;;4.32;4.07;;;;;;;2.22;100.00;99430.50;6113778;23;20026;-71
2023/12/08 00:56:09;;;;;;;5.28;4.95;;;;;;;1.71;100.00;99335.84;6053393;23;20689;-71
2023/12/08 00:58:37;;;;;;;3.75;3.55;;;;;;;2.43;100.00;99465.06;6112911;23;20503;-72
2023/12/08 01:01:04;;;;;;;3.67;3.50;;;;;;;1.66;100.00;99327.41;6076329;23;20041;-72
2023/12/08 01:03:30;;;;;;;3.72;3.53;;;;;;;2.43;100.00;99465.06;6112887;23;20021;-73
2023/12/08 01:05:57;;;;;;;4.43;4.13;;;;;;;1.98;100.00;99391.72;6080018;23;20023;-72
2023/12/08 01:08:24;;;;;;;3.58;3.38;;;;;;;2.44;100.00;99451.22;6101307;23;20074;-72
2023/12/08 01:10:50;;;;;;;4.10;3.72;;;;;;;2.03;100.00;99382.94;6080353;23;20567;-73
2023/12/08 01:13:16;;;;;;;3.85;3.65;;;;;;;2.07;100.00;99380.19;6107907;23;20024;-72
2023/12/08 01:15:43;;;;;;;4.35;3.95;;;;;;;2.26;100.00;99419.13;6083796;23;20067;-71
2023/12/08 01:18:10;;;;;;;6.63;6.20;;;;;;;1.88;100.00;99385.19;6102840;23;20107;-71
2023/12/08 01:20:36;;;;;;;5.65;3.47;;;;;;;2.41;100.00;99479.84;6080358;23;20618;-74
2023/12/08 01:23:03;;;;;;;3.63;3.42;;;;;;;2.01;100.00;99452.03;6110701;23;20037;-71
2023/12/08 01:25:29;;;;;;;4.75;4.35;;;;;;;2.38;100.00;99513.59;6078609;23;20050;-71
2023/12/08 01:27:56;;;;;;;4.68;4.32;;;;;;;2.35;100.00;99514.56;6120116;23;20102;-71
2023/12/08 01:30:22;;;;;;;4.40;4.13;;;;;;;2.40;100.00;99541.09;6074972;23;20115;-73
2023/12/08 01:32:48;;;;;;;3.67;3.10;;;;;;;1.94;100.00;99416.00;6111558;23;20096;-71
2023/12/08 01:35:15;;;;;;;4.40;4.20;;;;;;;2.12;100.00;99434.34;6079832;23;20021;-72
2023/12/08 01:37:41;;;;;;;3.25;3.05;;;;;;;2.34;100.00;99463.66;6109950;23;20553;-71
2023/12/08 01:40:08;;;;;;;7.65;6.78;;;;;;;1.87;100.00;99362.00;6079413;23;20017;-71
2023/12/08 01:42:37;;;;;;;3.72;3.53;;;;;;;2.05;100.00;99392.31;6110079;23;20021;-72
2023/12/08 01:45:04;;;;;;;4.97;4.57;;;;;;;2.49;100.00;99464.84;6056471;23;20601;-75
2023/12/08 01:47:31;;;;;;;5.10;4.55;;;;;;;1.44;100.00;99302.34;6111927;23;20025;-72
2023/12/08 01:49:57;;;;;;;4.35;3.95;;;;;;;1.57;100.00;99350.13;6076493;23;20366;-71
2023/12/08 01:52:24;;;;;;;7.53;5.38;;;;;;;1.91;100.00;99441.16;6087412;23;20244;-71
2023/12/08 01:54:56;;;;;;;3.78;3.58;;;;;;;2.22;100.00;99528.84;6078934;23;20085;-72
2023/12/08 01:57:23;;;;;;;5.23;4.83;;;;;;;2.42;100.00;99586.81;6110457;23;20054;-72
2023/12/08 01:59:51;;;;;;;4.07;3.80;;;;;;;1.70;100.00;99515.19;6083665;23;20017;-71
2023/12/08 02:02:21;;;;;;;12.35;6.10;;;;;;;1.74;100.00;99563.31;6101971;23;20090;-72
2023/12/08 02:04:49;;;;;;;4.68;3.35;;;;;;;2.18;100.00;99686.00;6083244;23;20026;-72
2023/12/08 02:07:15;;;;;;;4.43;4.22;;;;;;;2.32;100.00;99739.91;6099561;23;20476;-72
2023/12/08 02:09:42;;;;;;;5.30;5.00;;;;;;;2.05;100.00;99775.31;6079591;23;21742;-72
2023/12/08 02:12:09;;;;;;;5.85;5.35;;;;;;;1.73;100.00;99701.31;6104128;23;20641;-74
2023/12/08 02:14:36;;;;;;;4.38;4.07;;;;;;;2.04;100.00;99796.91;6082150;23;20010;-70
2023/12/08 02:17:11;;;;;;;4.70;4.38;;;;;;;0.73;100.00;99630.25;6111142;23;20040;-70
2023/12/08 02:19:38;;;;;;;4.05;3.72;;;;;;;1.84;100.00;99813.03;6077610;23;20033;-71
2023/12/08 02:22:05;;;;;;;6.40;5.93;;;;;;;1.67;100.00;99777.34;6106465;23;20070;-71
2023/12/08 02:24:34;;;;;;;4.43;3.72;;;;;;;2.14;100.00;99846.63;6075244;23;20028;-71
2023/12/08 02:27:01;;;;;;;4.88;3.83;;;;;;;2.14;100.00;99854.41;6111666;23;20040;-71
2023/12/08 02:29:28;;;;;;;4.70;4.40;;;;;;;2.01;100.00;99824.63;6079958;23;20575;-71
2023/12/08 02:32:25;;;;;;;4.28;4.07;;;;;;;0.98;100.00;99671.72;6110408;23;20036;-71
2023/12/08 02:34:53;;;;;;;5.18;4.72;;;;;;;1.98;100.00;99821.25;6082576;23;20021;-72
2023/12/08 02:37:21;;;;;;;4.30;3.90;;;;;;;1.37;100.00;99735.19;6081066;23;20035;-72
2023/12/08 02:39:48;;;;;;;4.28;4.03;;;;;;;2.03;100.00;99846.13;6079689;23;20346;-72
2023/12/08 02:42:15;;;;;;;6.53;6.13;;;;;;;1.99;100.00;99853.13;6101617;23;20062;-75
2023/12/08 02:44:42;;;;;;;6.95;3.97;;;;;;;1.78;100.00;99844.28;6065847;23;20029;-72
2023/12/08 02:47:08;;;;;;;4.60;4.30;;;;;;;1.96;100.00;99877.34;6112256;23;20088;-71
2023/12/08 02:49:35;;;;;;;10.73;4.95;;;;;;;1.61;100.00;99825.84;6093086;23;20029;-71
2023/12/08 02:52:01;;;;;;;4.50;3.83;;;;;;;1.79;100.00;99871.84;6105181;23;20078;-71
2023/12/08 02:54:28;;;;;;;3.92;3.63;;;;;;;1.97;100.00;99884.22;6053208;23;20010;-73
2023/12/08 02:56:54;;;;;;;6.65;5.05;;;;;;;1.78;100.00;99821.84;6109486;23;20101;-72
2023/12/08 02:59:21;;;;;;;4.15;3.85;;;;;;;2.05;100.00;99826.22;6078031;23;20075;-71
2023/12/08 03:01:47;;;;;;;4.13;3.90;;;;;;;1.64;100.00;99745.56;6116628;23;20035;-71
2023/12/08 03:04:16;;;;;;;6.07;5.72;;;;;;;2.03;100.00;99761.59;6079852;23;20081;-74
2023/12/08 03:06:43;;;;;;;4.20;4.00;;;;;;;1.98;100.00;99727.22;6105706;23;20647;-71
2023/12/08 03:09:10;;;;;;;5.20;4.90;;;;;;;2.03;100.00;99725.34;6075063;23;20070;-71
2023/12/08 03:11:36;;;;;;;4.60;4.30;;;;;;;1.97;100.00;99733.31;6109576;23;20531;-74
2023/12/08 03:14:03;;;;;;;4.53;4.22;;;;;;;1.69;100.00;99695.38;6072126;23;20033;-71
2023/12/08 03:16:29;;;;;;;5.88;4.10;;;;;;;2.04;100.00;99744.31;6077339;23;20478;-73
2023/12/08 03:18:56;;;;;;;6.50;4.20;;;;;;;-1.45;100.00;99253.06;6105280;23;20017;-72
2023/12/08 03:21:23;;;;;;;4.13;3.92;;;;;;;1.78;100.00;99704.59;6080985;23;20511;-72
2023/12/08 03:23:50;;;;;;;5.45;4.90;;;;;;;0.70;100.00;99513.28;6095337;23;20492;-72
2023/12/08 03:26:18;;;;;;;6.03;5.50;;;;;;;2.09;100.00;99714.78;6076772;23;20028;-72
2023/12/08 03:28:44;;;;;;;4.65;4.35;;;;;;;2.09;100.00;99737.25;6108870;23;20049;-72
2023/12/08 03:31:29;;;;;;;10.27;5.45;;;;;;;1.60;100.00;99651.72;6074947;23;20374;-71
2023/12/08 03:33:56;;;;;;;4.10;3.72;;;;;;;1.12;100.00;99586.03;6110932;23;20456;-72
2023/12/08 03:36:22;;;;;;;4.90;4.45;;;;;;;1.83;100.00;99707.06;6074058;23;20401;-71
2023/12/08 03:38:49;;;;;;;4.70;4.40;;;;;;;2.05;100.00;99764.13;6112500;23;20032;-71
2023/12/08 03:41:16;;;;;;;6.50;4.82;;;;;;;1.87;100.00;99781.91;6057104;23;20081;-71
2023/12/08 03:43:42;;;;;;;5.28;4.75;;;;;;;1.36;100.00;99705.03;6110030;23;20017;-71
2023/12/08 03:46:09;;;;;;;6.13;5.78;;;;;;;1.52;100.00;99767.47;6083979;23;20625;-71
2023/12/08 03:48:36;;;;;;;4.07;3.88;;;;;;;1.93;100.00;99833.47;6109960;23;20034;-70
2023/12/08 03:51:06;;;;;;;3.38;3.17;;;;;;;1.87;100.00;99848.34;6060472;23;20079;-71
2023/12/08 03:53:33;;;;;;;4.55;4.20;;;;;;;1.35;100.00;99768.81;6085174;23;20325;-71
2023/12/08 03:55:59;;;;;;;4.20;3.80;;;;;;;0.64;100.00;99670.97;6082865;23;20029;-70
2023/12/08 03:58:27;;;;;;;5.25;4.95;;;;;;;1.59;100.00;99862.91;6111290;23;20037;-71
2023/12/08 04:00:54;;;;;;;3.45;3.25;;;;;;;1.79;100.00;99911.50;6054593;23;20034;-71
2023/12/08 04:03:22;;;;;;;4.90;4.65;;;;;;;1.39;100.00;99857.47;6114226;23;20678;-71
2023/12/08 04:05:49;;;;;;;4.00;3.80;;;;;;;1.09;100.00;99831.59;6061388;23;20089;-70
2023/12/08 04:08:16;;;;;;;5.82;5.43;;;;;;;1.71;100.00;99941.91;6080331;23;20156;-71
2023/12/08 04:10:43;;;;;;;4.47;4.10;;;;;;;1.02;100.00;99857.63;6083654;23;20034;-72
2023/12/08 04:13:10;;;;;;;5.88;5.32;;;;;;;0.53;100.00;99777.13;6102002;23;20699;-71
2023/12/08 04:15:36;;;;;;;5.05;4.75;;;;;;;0.81;100.00;99834.06;6077601;23;20061;-74
2023/12/08 04:18:03;;;;;;;3.83;3.60;;;;;;;1.71;100.00;100006.56;6112422;23;20485;-71
2023/12/08 04:20:31;;;;;;;3.92;3.63;;;;;;;1.74;100.00;100010.81;6080561;23;20025;-71
2023/12/08 04:22:57;;;;;;;5.43;4.90;;;;;;;1.49;100.00;99975.25;6108866;23;20029;-71
2023/12/08 04:25:23;;;;;;;3.45;3.30;;;;;;;1.78;100.00;100026.22;6079707;23;20022;-71
2023/12/08 04:27:50;;;;;;;4.25;3.85;;;;;;;1.65;100.00;100011.91;6114687;23;20467;-70
2023/12/08 04:30:16;;;;;;;5.95;5.65;;;;;;;1.82;100.00;100049.41;6075059;23;20674;-71
2023/12/08 04:32:43;;;;;;;3.15;3.05;;;;;;;1.62;100.00;100037.84;6115158;23;20021;-75
2023/12/08 04:35:09;;;;;;;5.97;4.30;;;;;;;1.31;100.00;99970.56;6081057;23;20021;-73
2023/12/08 04:37:36;;;;;;;4.15;3.95;;;;;;;0.83;100.00;99907.19;6105907;23;20037;-71
2023/12/08 04:40:03;;;;;;;5.30;4.65;;;;;;;1.39;100.00;100007.41;6079937;23;20075;-70
2023/12/08 04:42:29;;;;;;;5.40;4.95;;;;;;;1.77;100.00;100062.47;6104752;23;20888;-71
2023/12/08 04:44:56;;;;;;;4.22;4.03;;;;;;;1.14;100.00;99966.69;6061956;23;20332;-71
2023/12/08 04:47:23;;;;;;;4.03;3.72;;;;;;;1.13;100.00;99959.81;6109434;23;20025;-72
2023/12/08 04:49:50;;;;;;;5.22;4.75;;;;;;;1.77;100.00;100062.47;6081127;23;20038;-71
2023/12/08 04:52:17;;;;;;;5.68;5.38;;;;;;;0.96;100.00;99941.28;6108157;23;20465;-71
2023/12/08 04:54:43;;;;;;;4.47;4.15;;;;;;;0.76;100.00;99910.78;6075095;23;20010;-71
2023/12/08 04:57:09;;;;;;;4.05;3.78;;;;;;;1.03;100.00;99953.19;6110971;23;20787;-70
2023/12/08 04:59:37;;;;;;;4.70;4.10;;;;;;;1.27;100.00;99998.22;6082953;23;21285;-70
2023/12/08 05:02:04;;;;;;;3.28;3.05;;;;;;;1.75;100.00;100066.84;6110482;23;20036;-70
2023/12/08 05:04:31;;;;;;;4.72;4.32;;;;;;;1.29;100.00;99993.03;6080556;23;20052;-71
2023/12/08 05:06:57;;;;;;;4.22;3.90;;;;;;;0.82;100.00;99927.88;6056551;23;20026;-70
2023/12/08 05:09:24;;;;;;;5.18;4.68;;;;;;;1.70;100.00;100059.19;6105688;23;20021;-71
2023/12/08 05:11:51;;;;;;;4.93;4.53;;;;;;;0.75;100.00;99899.63;6061047;23;20091;-72
2023/12/08 05:14:19;;;;;;;5.60;5.25;;;;;;;1.18;100.00;99965.72;6107342;23;20044;-70
2023/12/08 05:16:45;;;;;;;6.13;4.70;;;;;;;0.99;100.00;99959.31;6062393;23;20026;-72
2023/12/08 05:19:12;;;;;;;4.88;4.47;;;;;;;1.73;100.00;100061.69;6104381;23;20736;-71
2023/12/08 05:21:39;;;;;;;3.47;3.28;;;;;;;1.73;100.00;100050.50;6084087;23;20026;-70
2023/12/08 05:24:05;;;;;;;7.03;6.15;;;;;;;1.44;100.00;100000.38;6108671;23;20025;-70
2023/12/08 05:26:33;;;;;;;4.85;4.47;;;;;;;1.79;100.00;100058.09;6050947;23;20034;-73
2023/12/08 05:28:59;;;;;;;4.78;4.38;;;;;;;1.82;100.00;100075.28;6111716;23;20589;-71
2023/12/08 05:31:26;;;;;;;7.22;3.72;;;;;;;0.64;100.00;99862.88;6078895;23;20060;-71
2023/12/08 05:33:52;;;;;;;4.68;4.25;;;;;;;1.26;100.00;99965.50;6110054;23;20100;-72
2023/12/08 05:36:19;;;;;;;5.93;5.43;;;;;;;1.19;100.00;99987.25;6078000;23;20034;-71
2023/12/08 05:38:45;;;;;;;4.53;4.15;;;;;;;1.82;100.00;100052.00;6111186;23;20066;-71
2023/12/08 05:41:12;;;;;;;11.55;5.18;;;;;;;1.51;100.00;100009.69;6084568;23;20390;-73
2023/12/08 05:43:38;;;;;;;6.63;5.05;;;;;;;1.54;100.00;100017.38;6107548;23;20023;-71
2023/12/08 05:46:05;;;;;;;6.32;5.70;;;;;;;1.19;100.00;99946.72;6079810;23;20555;-70
2023/12/08 05:48:31;;;;;;;3.92;3.72;;;;;;;1.88;100.00;100070.78;6081606;23;20081;-73
2023/12/08 05:50:58;;;;;;;4.55;4.20;;;;;;;1.87;100.00;100063.91;6077920;23;20058;-72
2023/12/08 05:53:24;;;;;;;5.07;4.68;;;;;;;1.80;100.00;100054.63;6084659;23;20017;-71
2023/12/08 05:55:51;;;;;;;4.60;4.28;;;;;;;1.74;100.00;100047.84;6080376;23;20116;-71
2023/12/08 05:58:17;;;;;;;5.35;5.05;;;;;;;1.91;100.00;100068.13;6080902;23;20021;-71
2023/12/08 06:00:43;;;;;;;5.10;4.53;;;;;;;1.89;100.00;100072.50;6063037;23;20069;-71
2023/12/08 06:03:10;;;;;;;10.40;6.35;;;;;;;1.92;100.00;100080.16;6085241;23;20472;-71
2023/12/08 06:05:36;;;;;;;4.35;4.10;;;;;;;1.30;100.00;99986.97;6056177;23;20018;-72
2023/12/08 06:08:03;;;;;;;4.40;4.13;;;;;;;1.57;100.00;100029.38;6103343;23;20029;-71
2023/12/08 06:10:29;;;;;;;5.00;4.63;;;;;;;1.88;100.00;100080.28;6056230;23;20754;-71
2023/12/08 06:12:56;;;;;;;3.80;3.55;;;;;;;1.28;100.00;99976.66;6108438;23;20484;-71
2023/12/08 06:15:22;;;;;;;5.50;5.20;;;;;;;0.98;100.00;99914.56;6079006;23;20741;-71
2023/12/08 06:17:49;;;;;;;6.35;5.10;;;;;;;1.39;100.00;99982.41;6113370;23;20029;-71
2023/12/08 06:20:16;;;;;;;5.38;5.10;;;;;;;1.76;100.00;100021.97;6051626;23;20013;-71
2023/12/08 06:22:43;;;;;;;8.60;5.93;;;;;;;1.96;100.00;100045.53;6108798;23;20025;-71
2023/12/08 06:25:09;;;;;;;6.03;5.60;;;;;;;1.43;100.00;99965.09;6051713;23;20410;-73
2023/12/08 06:27:37;;;;;;;9.32;4.95;;;;;;;1.97;100.00;100060.19;6088788;23;20066;-72
2023/12/08 06:30:04;;;;;;;6.43;4.20;;;;;;;1.65;100.00;100011.06;6078554;23;20088;-71
2023/12/08 06:32:30;;;;;;;5.53;5.03;;;;;;;1.61;100.00;100014.63;6107835;23;20427;-71
2023/12/08 06:34:57;;;;;;;4.95;4.60;;;;;;;1.54;100.00;99996.69;6081890;23;20093;-71
2023/12/08 06:37:24;;;;;;;5.65;5.20;;;;;;;2.06;100.00;100084.97;6106118;23;20063;-71
2023/12/08 06:39:50;;;;;;;4.70;4.38;;;;;;;0.73;100.00;99851.47;6081216;23;20056;-71
2023/12/08 06:42:17;;;;;;;6.57;6.18;;;;;;;1.69;100.00;100012.69;6078363;23;20026;-72
2023/12/08 06:44:43;;;;;;;5.13;4.55;;;;;;;1.82;100.00;100034.72;6074531;23;20722;-71
2023/12/08 06:47:10;;;;;;;5.00;4.68;;;;;;;0.96;100.00;99884.47;6087710;23;20024;-70
2023/12/08 06:49:36;;;;;;;8.82;4.22;;;;;;;2.03;100.00;100066.09;6052463;23;20705;-71
2023/12/08 06:52:06;;;;;;;6.15;4.43;;;;;;;1.74;100.00;100018.56;6085111;23;20092;-71
2023/12/08 06:54:33;;;;;;;5.47;5.03;;;;;;;1.58;100.00;99992.25;6078605;23;20032;-71
2023/12/08 06:56:59;;;;;;;5.82;5.35;;;;;;;2.11;100.00;100084.88;6110155;23;20040;-71
2023/12/08 06:59:26;;;;;;;3.35;3.25;;;;;;;1.49;100.00;99985.59;6079777;23;20024;-70
2023/12/08 07:01:52;;;;;;;5.90;5.35;;;;;;;2.11;100.00;100072.75;6114114;23;20106;-71
2023/12/08 07:04:19;;;;;;;6.80;6.25;;;;;;;1.96;100.00;100044.72;6080103;23;20021;-71
2023/12/08 07:06:46;;;;;;;5.55;5.05;;;;;;;1.79;100.00;100022.72;6106127;23;20100;-70
2023/12/08 07:09:13;;;;;;;5.72;5.28;;;;;;;1.95;100.00;100049.03;6081260;23;20052;-71
2023/12/08 07:11:39;;;;;;;5.80;4.35;;;;;;;2.02;100.00;100056.63;6106247;23;20053;-70
2023/12/08 07:14:05;;;;;;;6.05;5.40;;;;;;;1.93;100.00;100035.28;6052542;23;20093;-70
2023/12/08 07:16:32;;;;;;;5.60;5.28;;;;;;;1.65;100.00;99993.81;6114416;23;20045;-70
2023/12/08 07:18:59;;;;;;;4.70;4.30;;;;;;;1.81;100.00;100022.69;6060295;23;20503;-72
2023/12/08 07:21:26;;;;;;;6.22;5.60;;;;;;;0.79;100.00;99846.16;6127434;18;20057;-70
2023/12/08 07:23:53;;;;;;;5.40;5.00;;;;;;;2.09;100.00;100060.75;6053856;23;20010;-69
2023/12/08 07:26:25;;;;;;;7.95;7.45;;;;;;;2.27;100.00;100080.97;6072885;23;20103;-68
2023/12/08 07:28:52;;;;;;;5.95;4.45;;;;;;;2.24;100.00;100086.19;6028673;23;20010;-68
2023/12/08 07:31:29;;;;;;;4.32;4.13;;;;;;;1.72;100.00;99984.97;6054373;23;20258;-70
2023/12/08 07:33:59;;;;;;;4.93;4.57;;;;;;;2.11;100.00;100058.97;6052410;23;20218;-69
2023/12/08 07:36:30;;;;;;;6.32;5.75;;;;;;;2.13;100.00;100050.28;6052421;23;20606;-70
2023/12/08 07:38:58;;;;;;;5.22;4.78;;;;;;;2.25;100.00;100077.56;6026298;23;20549;-70
2023/12/08 07:41:28;;;;;;;5.25;4.82;;;;;;;2.11;100.00;100059.81;6073391;23;20040;-70
2023/12/08 07:43:58;;;;;;;5.70;5.30;;;;;;;2.27;100.00;100087.88;6021849;23;20992;-71
2023/12/08 07:46:27;;;;;;;4.78;4.47;;;;;;;2.27;100.00;100086.13;6055840;23;20041;-69
2023/12/08 07:48:57;;;;;;;4.10;3.80;;;;;;;2.34;100.00;100092.81;6023418;23;20020;-71
2023/12/08 07:51:27;;;;;;;7.80;5.03;;;;;;;2.05;100.00;100043.63;6055467;23;20085;-69
2023/12/08 07:53:54;;;;;;;5.25;4.82;;;;;;;2.41;100.00;100116.81;6052752;23;20034;-69
2023/12/08 07:56:22;;;;;;;7.10;6.50;;;;;;;2.39;100.00;100116.03;6079663;23;20320;-69
2023/12/08 07:59:10;;;;;;;5.30;4.65;;;;;;;2.38;100.00;100103.94;6052349;23;20026;-70
2023/12/08 08:01:43;;;;;;;7.70;6.75;;;;;;;2.13;100.00;100064.97;6073217;23;20111;-69
2023/12/08 08:04:14;;;;;;;5.88;5.57;;;;;;;2.51;100.00;100122.59;6026080;23;20085;-70
2023/12/08 08:06:47;;;;;;;4.50;4.20;;;;;;;2.52;100.00;100124.28;6049760;23;20037;-70
2023/12/08 08:09:14;;;;;;;10.27;5.43;;;;;;;1.97;100.00;100021.38;6051070;23;20056;-70
2023/12/08 08:11:44;;;;;;;5.72;4.90;;;;;;;2.53;100.00;100118.22;6078355;23;20025;-70
2023/12/08 08:14:14;;;;;;;5.93;5.35;;;;;;;2.53;100.00;100113.03;6015677;23;20022;-70
2023/12/08 08:16:52;;;;;;;5.82;5.43;;;;;;;1.69;100.00;99973.88;6074818;23;20393;-69
2023/12/08 08:19:23;;;;;;;4.70;4.30;;;;;;;2.59;100.00;100120.63;6045534;23;20396;-70
2023/12/08 08:21:52;;;;;;;4.75;4.32;;;;;;;2.05;100.00;100025.50;6052589;23;20035;-70
2023/12/08 08:24:42;;;;;;;6.05;5.47;;;;;;;2.65;100.00;100129.97;6045779;23;20030;-70
2023/12/08 08:27:13;;;;;;;8.85;7.43;;;;;;;2.59;100.00;100133.59;6077502;23;20519;-71
2023/12/08 08:29:43;;;;;;;5.72;5.32;;;;;;;2.60;100.00;100136.09;6041344;23;20027;-70
2023/12/08 08:32:39;;;;;;;7.18;6.65;;;;;;;2.49;100.00;100111.44;6071092;23;20516;-70
2023/12/08 08:38:21;;;;;;;5.93;5.63;;;;;;;2.71;100.00;100143.59;5982700;23;20240;-70
2023/12/08 08:40:48;;;;;;;5.60;5.05;;;;;;;2.22;100.00;100067.28;6040803;23;20053;-73
2023/12/08 08:43:28;;;;;;;5.50;4.97;;;;;;;2.70;100.00;100138.44;6071926;23;20718;-70
2023/12/08 08:46:41;;;;;;;6.47;5.88;;;;;;;2.81;100.00;100151.97;6018479;23;20598;-70
2023/12/08 08:49:11;;;;;;;5.07;4.68;;;;;;;2.67;100.00;100126.44;6068477;23;20023;-70
2023/12/08 08:51:40;;;;;;;4.75;4.43;;;;;;;2.43;100.00;100096.06;6037830;23;20394;-69
2023/12/08 08:54:08;;;;;;;6.47;6.10;;;;;;;2.72;100.00;100147.03;6069694;23;20751;-71
2023/12/08 08:56:44;;;;;;;5.68;5.18;;;;;;;2.73;100.00;100144.41;6050278;23;20041;-70
2023/12/08 08:59:11;;;;;;;5.65;5.25;;;;;;;2.64;100.00;100126.50;6055097;23;20052;-70
2023/12/08 09:01:46;;;;;;;6.65;6.05;;;;;;;1.03;100.00;99865.34;6046064;23;20082;-70
2023/12/08 09:04:15;;;;;;;7.63;6.95;;;;;;;2.19;100.00;100064.78;6059282;23;20546;-71
2023/12/08 09:07:08;;;;;;;4.97;4.60;;;;;;;2.85;100.00;100176.03;6043013;23;20034;-71
2023/12/08 09:09:38;;;;;;;6.25;5.63;;;;;;;2.26;100.00;100079.25;6051933;23;20555;-70
2023/12/08 09:12:11;;;;;;;7.68;6.95;;;;;;;2.56;100.00;100150.03;6014271;23;20509;-71
2023/12/08 09:14:40;;;;;;;5.75;5.30;;;;;;;2.80;100.00;100183.94;6063533;23;20022;-70
2023/12/08 09:17:09;;;;;;;5.38;4.85;;;;;;;2.83;100.00;100188.16;6026054;23;20037;-70
2023/12/08 09:19:43;;;;;;;8.88;7.05;;;;;;;1.93;100.00;100045.66;6033248;23;20509;-70
2023/12/08 09:22:10;;;;;;;6.18;5.80;;;;;;;1.85;100.00;100034.66;6031568;23;20121;-70
2023/12/08 09:24:40;;;;;;;7.88;6.68;;;;;;;2.83;100.00;100194.22;6052153;23;20034;-71
2023/12/08 09:27:13;;;;;;;5.70;5.28;;;;;;;2.53;100.00;100159.66;6021268;23;20037;-69
2023/12/08 09:29:41;;;;;;;5.30;4.80;;;;;;;2.85;100.00;100209.75;6075943;23;20092;-70
2023/12/08 09:32:11;;;;;;;6.40;6.03;;;;;;;2.22;100.00;100119.06;6046915;23;20469;-72
2023/12/08 09:34:42;;;;;;;4.43;4.13;;;;;;;2.87;100.00;100220.91;6023053;23;20026;-70
2023/12/08 09:37:09;;;;;;;5.82;5.30;;;;;;;2.89;100.00;100221.72;6077726;23;20028;-70
2023/12/08 09:39:58;;;;;;;4.78;4.47;;;;;;;2.96;100.00;100225.81;6026766;23;20108;-71
2023/12/08 09:42:55;;;;;;;5.05;4.68;;;;;;;2.67;100.00;100188.63;6081293;23;20202;-70
2023/12/08 09:45:21;;;;;;;;;;;;;;;2.97;100.00;100230.13;6046294;23;20263;-70
2023/12/08 09:47:54;;;;;;;5.47;4.90;;;;;;;2.96;100.00;100231.84;6074846;23;19914;-69
2023/12/08 09:50:22;;;;;;;6.70;5.57;;;;;;;3.00;100.00;100230.84;6047637;23;20240;-70
2023/12/08 09:52:49;;;;;;;5.32;4.93;;;;;;;2.79;100.00;100188.28;6080305;23;20386;-69
2023/12/08 09:55:16;;;;;;;5.32;4.93;;;;;;;1.47;100.00;99977.03;6049794;23;20108;-70
2023/12/08 09:57:47;;;;;;;5.72;5.38;;;;;;;3.00;100.00;100242.97;6068022;23;20092;-69
2023/12/08 10:00:20;;;;;;;6.93;6.20;;;;;;;3.05;100.00;100238.53;6043497;23;20034;-70
2023/12/08 10:02:49;;;;;;;5.15;4.85;;;;;;;3.09;100.00;100237.53;6052094;23;20437;-70
2023/12/08 10:05:17;;;;;;;8.27;5.55;;;;;;;3.06;100.00;100239.38;6012439;23;20022;-70
2023/12/08 10:07:48;;;;;;;13.35;7.43;;;;;;;3.06;100.00;100236.78;6076878;23;20100;-70
2023/12/08 10:10:19;;;;;;;7.72;6.78;;;;;;;3.09;100.00;100234.94;6039982;23;20053;-72
2023/12/08 10:12:49;;;;;;;5.68;5.28;;;;;;;3.13;100.00;100249.53;6047134;23;20062;-71
2023/12/08 10:15:20;;;;;;;;;;;;;;;3.06;100.00;100240.22;6054715;23;20033;-71
2023/12/08 10:17:51;;;;;;;5.80;5.43;;;;;;;2.60;100.00;100174.13;6051227;23;19940;-71
2023/12/08 10:20:26;;;;;;;8.13;7.45;;;;;;;2.60;100.00;100163.75;6049957;23;20266;-70
2023/12/08 10:22:59;;;;;;;6.50;5.85;;;;;;;3.17;100.00;100253.72;6029567;23;20402;-70
2023/12/08 10:25:32;;;;;;;4.95;4.65;;;;;;;3.14;100.00;100233.06;6065076;23;20029;-70
2023/12/08 10:28:00;;;;;;;6.22;5.68;;;;;;;3.33;100.00;100255.88;6025719;23;20024;-70
2023/12/08 10:30:32;;;;;;;;;;;;;;;2.45;100.00;100135.72;6072039;23;20765;-70
2023/12/08 10:32:59;;;;;;;7.50;4.80;;;;;;;3.39;100.00;100263.47;6047618;23;19914;-71
2023/12/08 10:35:29;;;;;;;6.18;5.63;;;;;;;3.42;100.00;100250.41;6054071;23;20030;-73
2023/12/08 10:38:19;;;;;;;;;;;;;;;;;;;;;
2023/12/08 10:41:36;;;;;;;8.07;5.97;;;;;;;2.26;100.00;100060.28;6075378;23;20021;-72
2023/12/08 10:43:45;;;;;;;5.72;5.32;;;;;;;3.49;100.00;100253.66;6037905;23;20077;-72
2023/12/08 10:46:15;;;;;;;8.25;7.65;;;;;;;2.45;100.00;100068.38;6064690;23;20504;-73
2023/12/08 10:49:03;;;;;;;11.70;7.80;;;;;;;3.47;100.00;100216.53;6050691;23;20230;-74
2023/12/08 10:51:30;;;;;;;6.50;6.00;;;;;;;2.34;100.00;100009.13;6081857;23;20036;-75
2023/12/08 10:54:14;;;;;;;6.40;5.87;;;;;;;3.57;100.00;100220.56;6055589;23;20049;-75
2023/12/08 10:56:50;;;;;;;6.55;6.00;;;;;;;3.73;100.00;100233.91;6079626;23;20049;-73
2023/12/08 10:59:31;;;;;;;5.63;5.25;;;;;;;3.91;100.00;100259.28;6053953;23;20030;-72
2023/12/08 11:02:10;;;;;;;8.18;5.70;;;;;;;3.90;100.00;100256.72;6080215;23;20286;-72
2023/12/08 11:05:12;;;;;;;7.40;6.70;;;;;;;3.82;100.00;100243.97;6027126;23;20069;-72
2023/12/08 11:07:56;;;;;;;7.63;5.88;;;;;;;3.70;100.00;100219.25;6057030;23;20564;-73
2023/12/08 11:10:27;;;;;;;6.40;6.00;;;;;;;3.74;100.00;100209.66;6051179;23;20626;-73
2023/12/08 11:13:27;;;;;;;4.78;4.55;;;;;;;3.67;100.00;100187.38;6082254;23;20484;-72
2023/12/08 11:16:22;;;;;;;7.07;5.78;;;;;;;4.04;100.00;100243.31;6055710;23;20084;-74
2023/12/08 11:18:59;;;;;;;5.82;5.25;;;;;;;1.85;100.00;99882.00;6081718;23;20018;-73
2023/12/08 11:21:32;;;;;;;4.75;4.45;;;;;;;3.48;100.00;100167.19;6056227;23;20022;-73
2023/12/08 11:24:19;;;;;;;5.93;5.38;;;;;;;3.85;100.00;100215.34;6070788;23;20092;-73
2023/12/08 11:26:49;;;;;;;9.40;5.20;;;;;;;4.03;100.00;100252.84;6060583;23;20321;-73
2023/12/08 11:29:50;;;;;;;4.35;4.15;;;;;;;3.75;100.00;100204.41;6088090;23;20030;-73
2023/12/08 11:32:41;;;;;;;9.00;8.25;;;;;;;4.02;100.00;100255.50;6059395;23;20017;-73
2023/12/08 11:35:19;;;;;;;5.88;5.47;;;;;;;3.76;100.00;100213.03;6073063;23;20228;-73
2023/12/08 11:37:49;;;;;;;5.43;5.03;;;;;;;3.79;100.00;100218.97;6046836;23;20105;-74
2023/12/08 11:40:18;;;;;;;7.20;6.78;;;;;;;4.20;100.00;100270.47;6070147;23;20068;-73
2023/12/08 11:43:01;;;;;;;6.57;5.53;;;;;;;3.67;100.00;100179.59;6024747;23;20118;-73
2023/12/08 11:45:30;;;;;;;6.07;5.47;;;;;;;4.28;100.00;100268.47;6045415;23;20635;-73
2023/12/08 11:48:31;;;;;;;8.02;6.70;;;;;;;4.31;100.00;100296.94;6028770;23;21614;-73